Agia Marina — SX5375 — position and weather

sailwx.info

Track history (hours):
 
Tides and Currents Weather Stations Pressure Air Temp Water Temp Dewpoint Dewpoint Depression Visibility Wind Speed Wind Dir Waves Ship Positions

Agia Marina

Last reported at 2016-Nov-27 13:27 UTC. Time now 2016-Dec-08 09:59 UTC.
Position N 39°12' E 024°09'.
Warning: this ship's position is 10 days out of date.

Length 59 m; draft 2.5 m.

Type: Cargo ship. MMSI: 237042500.

Date/timePositionNaut miles runAvg speedWind from/ knotsBaromVisibWave heightAir tempDewpointWater temp
2016-Nov-27 13:27N 39°12' E 024°09'74 2.1
2016-Nov-26 02:10N 38°01' E 024°36'4 7.2
2016-Nov-26 01:33N 37°57' E 024°34'7 7.0
2016-Nov-26 00:33N 37°52' E 024°27'7 6.9
2016-Nov-25 23:33N 37°48' E 024°20'22 6.5
2016-Nov-25 20:15N 37°38' E 023°56'8 7.0
2016-Nov-25 19:10N 37°39' E 023°47'4 6.4
2016-Nov-25 18:33N 37°41' E 023°42'7 6.8
2016-Nov-25 17:33N 37°47' E 023°38'7 6.7
2016-Nov-25 16:33N 37°53' E 023°36'6 6.1
2016-Nov-25 15:33N 37°59' E 023°33'4 3.7
2016-Nov-25 14:33N 38°02' E 023°36'0 0.0
2016-Nov-25 13:33N 38°02' E 023°36'0 0.0
2016-Nov-25 12:33N 38°02' E 023°36'0 0.0
2016-Nov-25 11:33N 38°02' E 023°36'0 0.0
2016-Nov-25 10:33N 38°02' E 023°36'0 0.0
2016-Nov-25 09:33N 38°02' E 023°36'0 0.0
2016-Nov-25 08:33N 38°02' E 023°36'0 0.0
2016-Nov-25 07:33N 38°02' E 023°36'0 0.0
2016-Nov-25 06:33N 38°02' E 023°36'0 0.0
2016-Nov-25 05:33N 38°02' E 023°36'0 0.0
2016-Nov-25 04:33N 38°02' E 023°36'0 0.0
2016-Nov-25 03:33N 38°02' E 023°36'0 0.0
2016-Nov-25 02:34N 38°02' E 023°36'0 0.0
2016-Nov-25 01:33N 38°02' E 023°36'0 0.0
2016-Nov-25 00:33N 38°02' E 023°36'0 0.0
2016-Nov-24 23:33N 38°02' E 023°36'0 0.0
2016-Nov-24 22:33N 38°02' E 023°36'0 0.0
2016-Nov-24 21:34N 38°02' E 023°36'0 0.0
2016-Nov-24 20:33N 38°02' E 023°36'0 0.0
2016-Nov-24 19:33N 38°02' E 023°36'0 0.0
2016-Nov-24 18:33N 38°02' E 023°36'0 0.0
2016-Nov-24 17:33N 38°02' E 023°36'0 0.0
2016-Nov-24 16:33N 38°02' E 023°36'0 0.0
2016-Nov-24 15:33N 38°02' E 023°36'0 0.0
2016-Nov-24 14:34N 38°02' E 023°36'0 0.0
2016-Nov-24 13:33N 38°02' E 023°36'0 0.0
2016-Nov-24 12:33N 38°02' E 023°36'0 0.0
2016-Nov-24 11:33N 38°02' E 023°36'0 0.0
2016-Nov-24 10:33N 38°02' E 023°36'0 0.0
2016-Nov-24 09:33N 38°02' E 023°36'0 0.0
2016-Nov-24 08:33N 38°02' E 023°36'0 0.0
2016-Nov-24 07:33N 38°02' E 023°36'0 0.0
2016-Nov-24 06:33N 38°02' E 023°36'0 0.0
2016-Nov-24 05:33N 38°02' E 023°36'0 0.0
2016-Nov-24 04:33N 38°02' E 023°36'0 0.0
2016-Nov-24 03:34N 38°02' E 023°36'0 0.0
2016-Nov-24 02:33N 38°02' E 023°36'0 0.0
2016-Nov-24 01:33N 38°02' E 023°36'0 0.0
2016-Nov-24 00:33N 38°02' E 023°36'0 0.0
2016-Nov-23 23:33N 38°02' E 023°36'0 0.0
2016-Nov-23 22:33N 38°02' E 023°36'0 0.0
2016-Nov-23 21:33N 38°02' E 023°36'0 0.0
2016-Nov-23 20:33N 38°02' E 023°36'0 0.0
2016-Nov-23 19:33N 38°02' E 023°36'0 0.0
2016-Nov-23 18:33N 38°02' E 023°36'0 0.0
2016-Nov-23 17:34N 38°02' E 023°36'0 0.0
2016-Nov-23 16:33N 38°02' E 023°36'0 0.0
2016-Nov-23 15:33N 38°02' E 023°36'0 0.0
2016-Nov-23 14:33N 38°02' E 023°36'0 0.0
2016-Nov-23 13:33N 38°02' E 023°36'0 0.0
2016-Nov-23 12:33N 38°02' E 023°36'0 0.0
2016-Nov-23 11:33N 38°02' E 023°36'0 0.0
2016-Nov-23 10:33N 38°02' E 023°36'0 0.0
2016-Nov-23 09:33N 38°02' E 023°36'0 0.0
2016-Nov-23 08:33N 38°02' E 023°36'0 0.0
2016-Nov-23 07:33N 38°02' E 023°36'0 0.0
2016-Nov-23 06:33N 38°02' E 023°36'0 0.0
2016-Nov-23 03:33N 38°02' E 023°36'0 0.0
2016-Nov-23 02:34N 38°02' E 023°36'0 0.0
2016-Nov-23 00:33N 38°02' E 023°36'0 0.0
2016-Nov-22 23:33N 38°02' E 023°36'0 0.0
2016-Nov-22 22:33N 38°02' E 023°36'0 0.0
2016-Nov-22 20:33N 38°02' E 023°36'0 0.0
2016-Nov-22 19:33N 38°02' E 023°36'0 0.0
2016-Nov-22 17:33N 38°02' E 023°36'0 0.0
2016-Nov-22 16:33N 38°02' E 023°36'0 0.0
2016-Nov-22 15:33N 38°02' E 023°36'0 0.0
2016-Nov-22 14:33N 38°02' E 023°36'0 0.0
2016-Nov-22 13:33N 38°02' E 023°36'0 0.0
2016-Nov-22 10:33N 38°02' E 023°36'0 0.0
2016-Nov-22 09:33N 38°02' E 023°36'0 0.0
2016-Nov-22 08:33N 38°02' E 023°36'0 0.0
2016-Nov-22 07:33N 38°02' E 023°36'0 0.0
2016-Nov-22 05:33N 38°02' E 023°36'0 0.0
2016-Nov-22 04:33N 38°02' E 023°36'0 0.0
2016-Nov-22 03:33N 38°02' E 023°36'0 0.0
2016-Nov-22 02:34N 38°02' E 023°36'0 0.0
2016-Nov-21 23:33N 38°02' E 023°36'0 0.0
2016-Nov-21 21:33N 38°02' E 023°36'0 0.0
2016-Nov-21 17:33N 38°02' E 023°36'0 0.0
2016-Nov-21 14:33N 38°02' E 023°36'0 0.0
2016-Nov-21 13:33N 38°02' E 023°36'0 0.0
2016-Nov-21 12:33N 38°02' E 023°36'0 0.0
2016-Nov-21 11:33N 38°02' E 023°36'0 0.0
2016-Nov-21 10:33N 38°02' E 023°36'0 0.0
2016-Nov-21 08:33N 38°02' E 023°36'0 0.0
2016-Nov-21 07:33N 38°02' E 023°36'0 0.0
2016-Nov-21 05:33N 38°02' E 023°36'0 0.0
2016-Nov-21 04:33N 38°02' E 023°36'0 0.0
2016-Nov-21 02:33N 38°02' E 023°36'0 0.0
2016-Nov-21 00:33N 38°02' E 023°36'0 0.0
2016-Nov-20 22:33N 38°02' E 023°36'0 0.0
2016-Nov-20 21:33N 38°02' E 023°36'0 0.0
2016-Nov-20 17:33N 38°02' E 023°36'0 0.0
2016-Nov-20 16:34N 38°02' E 023°36'0 0.0
2016-Nov-20 14:33N 38°02' E 023°36'0 0.0
2016-Nov-20 13:33N 38°02' E 023°36'0 0.0
2016-Nov-20 12:33N 38°02' E 023°36'0 0.0
2016-Nov-20 09:33N 38°02' E 023°36'0 0.0
2016-Nov-20 08:33N 38°02' E 023°36'0 0.0
2016-Nov-20 07:33N 38°02' E 023°36'0 0.0
2016-Nov-20 06:33N 38°02' E 023°36'0 0.0
2016-Nov-20 05:33N 38°02' E 023°36'0 0.0
2016-Nov-20 04:33N 38°02' E 023°36'0 0.0
2016-Nov-20 03:33N 38°02' E 023°36'0 0.0
2016-Nov-20 01:33N 38°02' E 023°36'0 0.0
2016-Nov-19 23:33N 38°02' E 023°36'0 0.0
2016-Nov-19 22:33N 38°02' E 023°36'0 0.0
2016-Nov-19 20:33N 38°02' E 023°36'0 0.0
2016-Nov-19 19:33N 38°02' E 023°36'0 0.0
2016-Nov-19 17:33N 38°02' E 023°36'0 0.0
2016-Nov-19 16:33N 38°02' E 023°36'0 0.0
2016-Nov-19 14:33N 38°02' E 023°36'0 0.0
2016-Nov-19 11:33N 38°02' E 023°36'0 0.0
2016-Nov-19 09:33N 38°02' E 023°36'0 0.0
2016-Nov-19 07:33N 38°02' E 023°36'0 0.0
2016-Nov-19 05:33N 38°02' E 023°36'0 0.0
2016-Nov-19 04:33N 38°02' E 023°36'0 0.0
2016-Nov-19 03:33N 38°02' E 023°36'0 0.0
2016-Nov-19 02:33N 38°02' E 023°36'0 0.0
2016-Nov-19 01:33N 38°02' E 023°36'0 0.0
2016-Nov-19 00:34N 38°02' E 023°36'0 0.0
2016-Nov-18 23:33N 38°02' E 023°36'0 0.0
2016-Nov-18 20:33N 38°02' E 023°36'0 0.0
2016-Nov-18 18:33N 38°02' E 023°36'0 0.0
2016-Nov-18 17:33N 38°02' E 023°36'0 0.0
2016-Nov-18 14:33N 38°02' E 023°36'0 0.0
2016-Nov-18 12:33N 38°02' E 023°36'0 0.0
2016-Nov-18 11:33N 38°02' E 023°36'0 0.0
2016-Nov-18 09:33N 38°02' E 023°36'0 0.0
2016-Nov-18 07:33N 38°02' E 023°36'0 0.0
2016-Nov-18 05:33N 38°02' E 023°36'0 0.0
2016-Nov-18 04:33N 38°02' E 023°36'0 0.0
2016-Nov-18 01:33N 38°02' E 023°36'0 0.0
2016-Nov-18 00:33N 38°02' E 023°36'0 0.0
2016-Nov-17 23:33N 38°02' E 023°36'0 0.0
2016-Nov-17 22:33N 38°02' E 023°36'0 0.0
2016-Nov-17 21:33N 38°02' E 023°36'0 0.0
2016-Nov-17 19:33N 38°02' E 023°36'0 0.0
2016-Nov-17 18:33N 38°02' E 023°36'0 0.0
2016-Nov-17 14:33N 38°02' E 023°36'0 0.0
2016-Nov-17 13:33N 38°02' E 023°36'  
Track history (hours):
 
Tides and Currents Weather Stations Pressure Air Temp Water Temp Dewpoint Dewpoint Depression Visibility Wind Speed Wind Dir Waves Ship Positions

Agia Marina

Last reported at 2016-Nov-27 13:27 UTC. Time now 2016-Dec-08 09:59 UTC.
Position N 39°12' E 024°09'.
Warning: this ship's position is 10 days out of date.

Length 59 m; draft 2.5 m.

Type: Cargo ship. MMSI: 237042500.

Date/timePositionNaut miles runAvg speedWind from/ knotsBaromVisibWave heightAir tempDewpointWater temp
2016-Nov-27 13:27N 39°12' E 024°09'74 2.1
2016-Nov-26 02:10N 38°01' E 024°36'4 7.2
2016-Nov-26 01:33N 37°57' E 024°34'7 7.0
2016-Nov-26 00:33N 37°52' E 024°27'7 6.9
2016-Nov-25 23:33N 37°48' E 024°20'22 6.5
2016-Nov-25 20:15N 37°38' E 023°56'8 7.0
2016-Nov-25 19:10N 37°39' E 023°47'4 6.4
2016-Nov-25 18:33N 37°41' E 023°42'7 6.8
2016-Nov-25 17:33N 37°47' E 023°38'7 6.7
2016-Nov-25 16:33N 37°53' E 023°36'6 6.1
2016-Nov-25 15:33N 37°59' E 023°33'4 3.7
2016-Nov-25 14:33N 38°02' E 023°36'0 0.0
2016-Nov-25 13:33N 38°02' E 023°36'0 0.0
2016-Nov-25 12:33N 38°02' E 023°36'0 0.0
2016-Nov-25 11:33N 38°02' E 023°36'0 0.0
2016-Nov-25 10:33N 38°02' E 023°36'0 0.0
2016-Nov-25 09:33N 38°02' E 023°36'0 0.0
2016-Nov-25 08:33N 38°02' E 023°36'0 0.0
2016-Nov-25 07:33N 38°02' E 023°36'0 0.0
2016-Nov-25 06:33N 38°02' E 023°36'0 0.0
2016-Nov-25 05:33N 38°02' E 023°36'0 0.0
2016-Nov-25 04:33N 38°02' E 023°36'0 0.0
2016-Nov-25 03:33N 38°02' E 023°36'0 0.0
2016-Nov-25 02:34N 38°02' E 023°36'0 0.0
2016-Nov-25 01:33N 38°02' E 023°36'0 0.0
2016-Nov-25 00:33N 38°02' E 023°36'0 0.0
2016-Nov-24 23:33N 38°02' E 023°36'0 0.0
2016-Nov-24 22:33N 38°02' E 023°36'0 0.0
2016-Nov-24 21:34N 38°02' E 023°36'0 0.0
2016-Nov-24 20:33N 38°02' E 023°36'0 0.0
2016-Nov-24 19:33N 38°02' E 023°36'0 0.0
2016-Nov-24 18:33N 38°02' E 023°36'0 0.0
2016-Nov-24 17:33N 38°02' E 023°36'0 0.0
2016-Nov-24 16:33N 38°02' E 023°36'0 0.0
2016-Nov-24 15:33N 38°02' E 023°36'0 0.0
2016-Nov-24 14:34N 38°02' E 023°36'0 0.0
2016-Nov-24 13:33N 38°02' E 023°36'0 0.0
2016-Nov-24 12:33N 38°02' E 023°36'0 0.0
2016-Nov-24 11:33N 38°02' E 023°36'0 0.0
2016-Nov-24 10:33N 38°02' E 023°36'0 0.0
2016-Nov-24 09:33N 38°02' E 023°36'0 0.0
2016-Nov-24 08:33N 38°02' E 023°36'0 0.0
2016-Nov-24 07:33N 38°02' E 023°36'0 0.0
2016-Nov-24 06:33N 38°02' E 023°36'0 0.0
2016-Nov-24 05:33N 38°02' E 023°36'0 0.0
2016-Nov-24 04:33N 38°02' E 023°36'0 0.0
2016-Nov-24 03:34N 38°02' E 023°36'0 0.0
2016-Nov-24 02:33N 38°02' E 023°36'0 0.0
2016-Nov-24 01:33N 38°02' E 023°36'0 0.0
2016-Nov-24 00:33N 38°02' E 023°36'0 0.0
2016-Nov-23 23:33N 38°02' E 023°36'0 0.0
2016-Nov-23 22:33N 38°02' E 023°36'0 0.0
2016-Nov-23 21:33N 38°02' E 023°36'0 0.0
2016-Nov-23 20:33N 38°02' E 023°36'0 0.0
2016-Nov-23 19:33N 38°02' E 023°36'0 0.0
2016-Nov-23 18:33N 38°02' E 023°36'0 0.0
2016-Nov-23 17:34N 38°02' E 023°36'0 0.0
2016-Nov-23 16:33N 38°02' E 023°36'0 0.0
2016-Nov-23 15:33N 38°02' E 023°36'0 0.0
2016-Nov-23 14:33N 38°02' E 023°36'0 0.0
2016-Nov-23 13:33N 38°02' E 023°36'0 0.0
2016-Nov-23 12:33N 38°02' E 023°36'0 0.0
2016-Nov-23 11:33N 38°02' E 023°36'0 0.0
2016-Nov-23 10:33N 38°02' E 023°36'0 0.0
2016-Nov-23 09:33N 38°02' E 023°36'0 0.0
2016-Nov-23 08:33N 38°02' E 023°36'0 0.0
2016-Nov-23 07:33N 38°02' E 023°36'0 0.0
2016-Nov-23 06:33N 38°02' E 023°36'0 0.0
2016-Nov-23 03:33N 38°02' E 023°36'0 0.0
2016-Nov-23 02:34N 38°02' E 023°36'0 0.0
2016-Nov-23 00:33N 38°02' E 023°36'0 0.0
2016-Nov-22 23:33N 38°02' E 023°36'0 0.0
2016-Nov-22 22:33N 38°02' E 023°36'0 0.0
2016-Nov-22 20:33N 38°02' E 023°36'0 0.0
2016-Nov-22 19:33N 38°02' E 023°36'0 0.0
2016-Nov-22 17:33N 38°02' E 023°36'0 0.0
2016-Nov-22 16:33N 38°02' E 023°36'0 0.0
2016-Nov-22 15:33N 38°02' E 023°36'0 0.0
2016-Nov-22 14:33N 38°02' E 023°36'0 0.0
2016-Nov-22 13:33N 38°02' E 023°36'0 0.0
2016-Nov-22 10:33N 38°02' E 023°36'0 0.0
2016-Nov-22 09:33N 38°02' E 023°36'0 0.0
2016-Nov-22 08:33N 38°02' E 023°36'0 0.0
2016-Nov-22 07:33N 38°02' E 023°36'0 0.0
2016-Nov-22 05:33N 38°02' E 023°36'0 0.0
2016-Nov-22 04:33N 38°02' E 023°36'0 0.0
2016-Nov-22 03:33N 38°02' E 023°36'0 0.0
2016-Nov-22 02:34N 38°02' E 023°36'0 0.0
2016-Nov-21 23:33N 38°02' E 023°36'0 0.0
2016-Nov-21 21:33N 38°02' E 023°36'0 0.0
2016-Nov-21 17:33N 38°02' E 023°36'0 0.0
2016-Nov-21 14:33N 38°02' E 023°36'0 0.0
2016-Nov-21 13:33N 38°02' E 023°36'0 0.0
2016-Nov-21 12:33N 38°02' E 023°36'0 0.0
2016-Nov-21 11:33N 38°02' E 023°36'0 0.0
2016-Nov-21 10:33N 38°02' E 023°36'0 0.0
2016-Nov-21 08:33N 38°02' E 023°36'0 0.0
2016-Nov-21 07:33N 38°02' E 023°36'0 0.0
2016-Nov-21 05:33N 38°02' E 023°36'0 0.0
2016-Nov-21 04:33N 38°02' E 023°36'0 0.0
2016-Nov-21 02:33N 38°02' E 023°36'0 0.0
2016-Nov-21 00:33N 38°02' E 023°36'0 0.0
2016-Nov-20 22:33N 38°02' E 023°36'0 0.0
2016-Nov-20 21:33N 38°02' E 023°36'0 0.0
2016-Nov-20 17:33N 38°02' E 023°36'0 0.0
2016-Nov-20 16:34N 38°02' E 023°36'0 0.0
2016-Nov-20 14:33N 38°02' E 023°36'0 0.0
2016-Nov-20 13:33N 38°02' E 023°36'0 0.0
2016-Nov-20 12:33N 38°02' E 023°36'0 0.0
2016-Nov-20 09:33N 38°02' E 023°36'0 0.0
2016-Nov-20 08:33N 38°02' E 023°36'0 0.0
2016-Nov-20 07:33N 38°02' E 023°36'0 0.0
2016-Nov-20 06:33N 38°02' E 023°36'0 0.0
2016-Nov-20 05:33N 38°02' E 023°36'0 0.0
2016-Nov-20 04:33N 38°02' E 023°36'0 0.0
2016-Nov-20 03:33N 38°02' E 023°36'0 0.0
2016-Nov-20 01:33N 38°02' E 023°36'0 0.0
2016-Nov-19 23:33N 38°02' E 023°36'0 0.0
2016-Nov-19 22:33N 38°02' E 023°36'0 0.0
2016-Nov-19 20:33N 38°02' E 023°36'0 0.0
2016-Nov-19 19:33N 38°02' E 023°36'0 0.0
2016-Nov-19 17:33N 38°02' E 023°36'0 0.0
2016-Nov-19 16:33N 38°02' E 023°36'0 0.0
2016-Nov-19 14:33N 38°02' E 023°36'0 0.0
2016-Nov-19 11:33N 38°02' E 023°36'0 0.0
2016-Nov-19 09:33N 38°02' E 023°36'0 0.0
2016-Nov-19 07:33N 38°02' E 023°36'0 0.0
2016-Nov-19 05:33N 38°02' E 023°36'0 0.0
2016-Nov-19 04:33N 38°02' E 023°36'0 0.0
2016-Nov-19 03:33N 38°02' E 023°36'0 0.0
2016-Nov-19 02:33N 38°02' E 023°36'0 0.0
2016-Nov-19 01:33N 38°02' E 023°36'0 0.0
2016-Nov-19 00:34N 38°02' E 023°36'0 0.0
2016-Nov-18 23:33N 38°02' E 023°36'0 0.0
2016-Nov-18 20:33N 38°02' E 023°36'0 0.0
2016-Nov-18 18:33N 38°02' E 023°36'0 0.0
2016-Nov-18 17:33N 38°02' E 023°36'0 0.0
2016-Nov-18 14:33N 38°02' E 023°36'0 0.0
2016-Nov-18 12:33N 38°02' E 023°36'0 0.0
2016-Nov-18 11:33N 38°02' E 023°36'0 0.0
2016-Nov-18 09:33N 38°02' E 023°36'0 0.0
2016-Nov-18 07:33N 38°02' E 023°36'0 0.0
2016-Nov-18 05:33N 38°02' E 023°36'0 0.0
2016-Nov-18 04:33N 38°02' E 023°36'0 0.0
2016-Nov-18 01:33N 38°02' E 023°36'0 0.0
2016-Nov-18 00:33N 38°02' E 023°36'0 0.0
2016-Nov-17 23:33N 38°02' E 023°36'0 0.0
2016-Nov-17 22:33N 38°02' E 023°36'0 0.0
2016-Nov-17 21:33N 38°02' E 023°36'0 0.0
2016-Nov-17 19:33N 38°02' E 023°36'0 0.0
2016-Nov-17 18:33N 38°02' E 023°36'0 0.0
2016-Nov-17 14:33N 38°02' E 023°36'0 0.0
2016-Nov-17 13:33N 38°02' E 023°36'  

Dump ship's entire track history